Latest Weather Observations for Collie East

IDW60801

Issued at 4:33 pm WST Saturday 1 October 2016 (issued every 30 minutes, with the page automatically refreshed every 10 minutes)

About weather observations | Map of weather stations | Latest weather observations for WA | Other Formats
Station Details ID: 009994 Name: COLLIE EAST Lat: -33.36 Lon: 116.17 Height: 200.0 m
Data from the previous 72 hours. | See also: Recent months at Collie East
Date/Time
WST
Temp
°C
App
Temp
°C
Dew
Point
°C
Rel
Hum
%
Delta-T
°C
Wind Press
QNH
hPa
Press
MSL
hPa
Rain since
9am
mm
Dir  Spd
km/h
Gust
km/h
Spd
kts
Gust
kts
01/04:30pm 6.9 3.7 4.9 87 0.9 WSW 11 22 6 12 - - 4.4
01/04:00pm 7.4 2.9 4.4 81 1.3 WSW 17 35 9 19 - - 3.6
01/03:30pm 9.7 5.2 4.3 69 2.4 WSW 17 30 9 16 - - 3.2
01/03:00pm 9.2 3.4 2.5 63 2.9 SW 22 41 12 22 - - 2.8
01/02:30pm 12.3 6.9 2.2 50 4.4 W 20 44 11 24 - - 2.4
01/02:00pm 11.0 6.2 4.5 64 3.0 W 19 35 10 19 - - 2.4
01/01:30pm 10.4 6.3 4.3 66 2.7 W 15 32 8 17 - - 2.2
01/01:00pm 7.7 2.7 3.7 76 1.7 WSW 19 41 10 22 - - 2.0
01/12:59pm 7.7 2.7 3.6 75 1.8 WSW 19 41 10 22 - - 2.0
01/12:30pm 12.7 7.9 4.7 58 3.7 W 19 39 10 21 - - 0.8
01/12:00pm 10.0 5.1 4.2 67 2.6 W 19 33 10 18 - - 0.8
01/11:30am 6.7 -0.9 3.1 78 1.5 WSW 32 63 17 34 - - 0.6
01/11:15am 10.9 4.2 3.5 60 3.3 W 28 48 15 26 - - 0.0
01/11:00am 12.4 6.5 3.9 56 3.9 W 24 54 13 29 - - 0.0
01/10:30am 12.6 7.7 4.1 56 3.9 W 19 33 10 18 - - 0.0
01/10:03am 11.6 4.7 2.4 53 4.0 WSW 28 52 15 28 - - 0.0
01/10:00am 11.8 5.3 2.5 53 4.1 WSW 26 52 14 28 - - 0.0
01/09:30am 10.9 5.6 4.8 66 2.8 W 22 48 12 26 - - 0.0
01/09:00am 9.8 4.3 4.2 68 2.5 W 22 50 12 27 - - 9.4
01/08:50am 11.6 4.7 2.4 53 4.0 W 28 52 15 28 - - 9.2
01/08:30am 10.8 5.6 3.8 62 3.1 W 20 43 11 23 - - 9.2
01/08:00am 9.9 5.0 5.1 72 2.2 WSW 20 41 11 22 - - 9.2
01/07:30am 9.4 5.3 6.3 81 1.4 W 17 33 9 18 - - 9.0
01/07:00am 9.4 6.2 6.8 84 1.2 W 13 24 7 13 - - 8.6
01/06:30am 9.6 5.3 6.9 83 1.3 W 19 41 10 22 - - 8.2
01/06:00am 10.1 5.4 7.9 86 1.1 W 22 44 12 24 - - 7.6
01/05:30am 12.0 7.7 9.4 84 1.3 WNW 22 50 12 27 - - 4.2
01/05:06am 11.8 6.3 9.2 84 1.3 NW 28 50 15 27 - - 4.2
01/05:00am 12.1 7.7 9.1 82 1.5 WNW 22 44 12 24 - - 4.0
01/04:40am 12.1 6.6 9.1 82 1.5 NW 28 48 15 26 - - 3.8
01/04:30am 12.3 7.6 9.1 81 1.6 NW 24 52 13 28 - - 3.4
01/04:00am 12.9 8.9 9.0 77 2.0 WNW 20 33 11 18 - - 3.4
01/03:30am 12.4 9.3 8.9 79 1.8 NW 15 32 8 17 - - 3.4
01/03:00am 12.0 8.8 8.5 79 1.8 NW 15 32 8 17 - - 3.4
01/02:30am 12.1 8.5 8.4 78 1.8 NW 17 32 9 17 - - 3.4
01/02:00am 12.0 8.9 8.7 80 1.7 NW 15 24 8 13 - - 3.4
01/01:30am 11.7 8.5 8.6 81 1.6 NW 15 28 8 15 - - 3.4
01/01:00am 11.4 8.2 8.3 81 1.5 NW 15 26 8 14 - - 3.4
01/12:30am 10.5 8.3 7.9 84 1.3 NW 9 15 5 8 - - 3.4
01/12:00am 10.5 8.4 8.1 85 1.2 NW 9 13 5 7 - - 3.4
 
Date/Time
WST
Temp
°C
App
Temp
°C
Dew
Point
°C
Rel
Hum
%
Delta-T
°C
Wind Press
QNH
hPa
Press
MSL
hPa
Rain since
9am
mm
Dir  Spd
km/h
Gust
km/h
Spd
kts
Gust
kts
30/11:30pm 10.5 8.8 8.3 86 1.1 NW 7 13 4 7 - - 3.4
30/11:00pm 10.3 8.6 8.4 88 0.9 NW 7 11 4 6 - - 3.4
30/10:30pm 10.0 8.4 8.1 88 0.9 NW 6 9 3 5 - - 3.4
30/10:00pm 10.6 9.1 8.5 87 1.0 WNW 6 9 3 5 - - 3.4
30/09:30pm 10.7 9.0 8.3 85 1.2 NNW 7 11 4 6 - - 3.4
30/09:00pm 10.9 9.1 8.0 82 1.4 NW 7 13 4 7 - - 3.4
30/08:30pm 11.1 9.3 8.1 82 1.5 WNW 7 11 4 6 - - 3.4
30/08:00pm 11.5 9.5 8.7 83 1.4 WNW 9 17 5 9 - - 3.4
30/07:30pm 11.8 10.1 9.7 87 1.1 WNW 9 13 5 7 - - 3.2
30/07:00pm 12.2 10.6 10.3 88 1.0 WNW 9 13 5 7 - - 3.2
30/06:30pm 12.2 10.2 10.1 87 1.1 WNW 11 22 6 12 - - 3.2
30/06:00pm 12.1 9.6 9.7 85 1.2 W 13 24 7 13 - - 3.2
30/05:30pm 12.5 10.1 10.2 86 1.2 W 13 26 7 14 - - 3.2
30/05:00pm 13.2 10.3 9.8 80 1.8 W 15 28 8 15 - - 3.2
30/04:30pm 12.5 8.9 10.4 87 1.1 WSW 20 41 11 22 - - 3.2
30/04:00pm 12.9 10.7 10.8 87 1.1 W 13 26 7 14 - - 2.4
30/03:30pm 13.1 10.4 10.3 83 1.5 WNW 15 32 8 17 - - 1.6
30/03:00pm 14.9 10.7 8.4 65 3.3 W 20 37 11 20 - - 1.6
30/02:30pm 16.1 11.2 8.3 60 4.0 WNW 24 50 13 27 - - 1.6
30/02:00pm 14.5 10.8 9.5 72 2.6 W 19 35 10 19 - - 1.6
30/01:30pm 14.8 12.4 11.4 80 1.8 WNW 15 26 8 14 - - 1.6
30/01:00pm 14.1 10.8 10.9 81 1.7 WNW 19 32 10 17 - - 1.4
30/12:30pm 16.3 11.8 8.5 60 4.0 WNW 22 46 12 25 - - 1.4
30/12:00pm 16.4 13.2 9.8 65 3.5 W 17 39 9 21 - - 1.4
30/11:30am 15.6 11.3 9.3 66 3.3 WNW 22 37 12 20 - - 1.4
30/11:00am 13.9 11.1 10.1 78 2.0 W 15 39 8 21 - - 1.4
30/10:30am 14.1 11.6 11.1 82 1.6 W 15 26 8 14 - - 1.4
30/10:00am 12.6 10.5 11.0 90 0.8 W 13 28 7 15 - - 1.2
30/09:30am 12.4 10.1 10.6 89 0.9 NW 13 28 7 15 - - 0.4
30/09:00am 13.3 9.6 9.4 77 2.0 NW 19 35 10 19 - - 0.0
30/08:30am 13.3 10.2 9.0 75 2.2 NW 15 26 8 14 - - 0.0
30/08:00am 12.5 8.9 8.4 76 2.1 NNW 17 30 9 16 - - 0.0
30/07:30am 10.6 8.4 7.8 83 1.4 N 9 15 5 8 - - 0.0
30/07:00am 9.1 7.2 7.5 90 0.8 N 7 9 4 5 - - 0.0
30/06:30am 7.3 5.3 6.4 94 0.4 NNW 6 9 3 5 - - 0.0
30/06:00am 5.3 4.0 4.3 93 0.4 CALM 0 0 0 0 - - 0.0
30/05:30am 5.6 4.4 4.6 93 0.4 CALM 0 0 0 0 - - 0.0
30/05:00am 5.7 4.5 4.7 93 0.4 CALM 0 0 0 0 - - 0.0
30/04:30am 4.9 3.6 3.9 93 0.4 CALM 0 0 0 0 - - 0.0
30/04:00am 4.8 3.4 3.8 93 0.4 CALM 0 0 0 0 - - 0.0
30/03:30am 4.6 3.2 3.6 93 0.4 CALM 0 0 0 0 - - 0.0
30/03:00am 4.2 2.7 3.2 93 0.4 CALM 0 0 0 0 - - 0.0
30/02:30am 3.9 2.4 2.9 93 0.4 CALM 0 0 0 0 - - 0.0
30/02:00am 3.9 2.4 2.9 93 0.4 CALM 0 0 0 0 - - 0.0
30/01:30am 3.9 2.3 2.7 92 0.5 CALM 0 0 0 0 - - 0.0
30/01:00am 3.9 2.3 2.7 92 0.5 CALM 0 0 0 0 - - 0.0
30/12:30am 3.7 2.1 2.5 92 0.5 CALM 0 0 0 0 - - 0.0
30/12:00am 4.0 2.4 2.7 91 0.5 CALM 0 0 0 0 - - 0.0
 
Date/Time
WST
Temp
°C
App
Temp
°C
Dew
Point
°C
Rel
Hum
%
Delta-T
°C
Wind Press
QNH
hPa
Press
MSL
hPa
Rain since
9am
mm
Dir  Spd
km/h
Gust
km/h
Spd
kts
Gust
kts
29/11:30pm 4.5 3.0 3.2 91 0.5 CALM 0 0 0 0 - - 0.0
29/11:00pm 4.7 3.3 3.4 91 0.5 CALM 0 0 0 0 - - 0.0
29/10:30pm 5.4 3.3 3.9 90 0.6 ENE 4 7 2 4 - - 0.0
29/10:00pm 5.4 4.0 3.7 89 0.7 CALM 0 0 0 0 - - 0.0
29/09:30pm 6.0 4.7 4.2 88 0.8 CALM 0 0 0 0 - - 0.0
29/09:00pm 7.1 6.0 4.9 86 1.0 CALM 0 0 0 0 - - 0.0
29/08:30pm 7.5 6.4 5.0 84 1.1 CALM 0 0 0 0 - - 0.0
29/08:00pm 8.4 7.3 5.3 81 1.4 CALM 0 0 0 0 - - 0.0
29/07:30pm 9.5 8.4 5.3 75 1.9 CALM 0 0 0 0 - - 0.0
29/07:00pm 11.0 8.8 5.1 67 2.7 W 6 9 3 5 - - 0.0
29/06:30pm 11.9 9.5 5.1 63 3.2 W 7 15 4 8 - - 0.0
29/06:00pm 13.1 9.9 5.3 59 3.7 W 11 19 6 10 - - 0.0
29/05:30pm 14.1 10.7 5.7 57 4.0 W 13 24 7 13 - - 0.0
29/05:00pm 14.9 11.5 5.7 54 4.4 WNW 13 22 7 12 - - 0.0
29/04:30pm 16.3 13.3 6.2 51 5.0 WNW 11 17 6 9 - - 0.0
29/04:00pm 17.0 14.3 5.6 47 5.6 WNW 9 15 5 8 - - 0.0
29/03:30pm 16.9 13.9 6.1 49 5.3 NNW 11 22 6 12 - - 0.0
29/03:00pm 16.5 12.8 4.5 45 5.7 NW 13 22 7 12 - - 0.0
29/02:30pm 16.8 13.3 5.4 47 5.5 WNW 13 20 7 11 - - 0.0
29/02:00pm 16.7 13.7 4.1 43 6.0 W 9 17 5 9 - - 0.0
29/01:30pm 16.5 13.5 3.9 43 5.9 WNW 9 19 5 10 - - 0.0
29/01:00pm 15.6 12.5 3.7 45 5.5 N 9 20 5 11 - - 0.0
29/12:30pm 15.1 12.1 3.9 47 5.2 NE 9 17 5 9 - - 0.0
29/12:00pm 14.9 12.1 5.1 52 4.7 N 9 17 5 9 - - 0.0
29/11:30am 13.9 11.2 3.7 50 4.7 NNE 7 17 4 9 - - 0.0
29/11:00am 13.5 10.4 3.6 51 4.5 NNW 9 19 5 10 - - 0.0
29/10:30am 13.0 9.9 3.7 53 4.2 N 9 15 5 8 - - 0.0
29/10:00am 11.9 8.8 3.4 56 3.8 N 9 15 5 8 - - 0.0
29/09:30am 11.0 7.5 3.3 59 3.4 N 11 17 6 9 - - 0.0
29/09:00am 9.9 6.3 2.7 61 3.1 ENE 11 15 6 8 - - 0.0
29/08:30am 8.7 5.5 3.1 68 2.4 NE 9 13 5 7 - - 0.0
29/08:00am 6.2 4.2 4.4 88 0.8 ESE 4 9 2 5 - - 0.0
29/07:30am 2.7 1.0 1.7 93 0.4 CALM 0 0 0 0 - - 0.0
29/07:00am 0.7 -1.3 -0.3 93 0.4 CALM 0 0 0 0 - - 0.0
29/06:30am -0.5 -2.7 -1.5 93 0.3 CALM 0 0 0 0 - - 0.0
29/06:00am -1.4 -3.7 -2.5 92 0.3 CALM 0 0 0 0 - - 0.0
29/05:30am -1.2 -3.5 -2.2 93 0.3 CALM 0 0 0 0 - - 0.0
29/05:00am -1.0 -3.3 -2.0 93 0.3 CALM 0 0 0 0 - - 0.0
29/04:30am -0.9 -3.1 -1.9 93 0.3 CALM 0 0 0 0 - - 0.0
29/04:00am -0.9 -3.2 -2.0 92 0.3 CALM 0 0 0 0 - - 0.0
29/03:30am -0.3 -2.5 -1.3 93 0.3 CALM 0 0 0 0 - - 0.0
29/03:00am -0.2 -2.4 -1.3 92 0.4 CALM 0 0 0 0 - - 0.0
29/02:30am 0.3 -1.8 -0.8 92 0.4 CALM 0 0 0 0 - - 0.0
29/02:00am 0.6 -1.5 -0.5 92 0.4 CALM 0 0 0 0 - - 0.0
29/01:30am 1.1 -0.9 -0.1 92 0.4 CALM 0 0 0 0 - - 0.0
29/01:00am 1.0 -1.0 -0.1 92 0.4 CALM 0 0 0 0 - - 0.0
29/12:30am 1.4 -0.6 0.2 92 0.4 CALM 0 0 0 0 - - 0.0
29/12:00am 2.1 0.3 0.9 92 0.5 CALM 0 0 0 0 - - 0.0
 
Date/Time
WST
Temp
°C
App
Temp
°C
Dew
Point
°C
Rel
Hum
%
Delta-T
°C
Wind Press
QNH
hPa
Press
MSL
hPa
Rain since
9am
mm
Dir  Spd
km/h
Gust
km/h
Spd
kts
Gust
kts
28/11:30pm 2.7 0.9 1.5 92 0.5 CALM 0 0 0 0 - - 0.0
28/11:00pm 2.9 1.2 1.6 91 0.5 CALM 0 0 0 0 - - 0.0
28/10:30pm 3.4 1.7 2.1 91 0.5 CALM 0 0 0 0 - - 0.0
28/10:00pm 3.5 1.8 2.0 90 0.6 CALM 0 0 0 0 - - 0.0
28/09:30pm 4.3 2.8 2.8 90 0.6 CALM 0 0 0 0 - - 0.0
28/09:00pm 4.7 3.2 2.9 88 0.7 CALM 0 0 0 0 - - 0.0
28/08:30pm 5.1 3.6 3.0 86 0.9 CALM 0 0 0 0 - - 0.0
28/08:00pm 5.9 4.5 3.4 84 1.1 CALM 0 0 0 0 - - 0.0
28/07:30pm 6.9 5.2 4.0 82 1.3 SE 2 6 1 3 - - 0.0
28/07:00pm 8.1 6.8 4.1 76 1.8 CALM 0 0 0 0 - - 0.0
28/06:30pm 9.7 7.9 3.7 66 2.7 SE 2 7 1 4 - - 0.0
28/06:00pm 11.4 8.7 2.9 56 3.7 SE 6 9 3 5 - - 0.0
28/05:30pm 12.3 9.0 2.5 51 4.3 SSE 9 15 5 8 - - 0.0
28/05:00pm 13.0 10.0 2.3 48 4.7 SSE 7 13 4 7 - - 0.0

Other Formats:

Comma delimited format used in spreadsheet applications
http://www.bom.gov.au/fwo/IDW60801/IDW60801.95621.axf

JavaScript Object Notation format (JSON) in row-major order
http://www.bom.gov.au/fwo/IDW60801/IDW60801.95621.json